Crystal City, Missouri
Current Conditions -  °F | °C
As of 11:53 AM on Monday 22 Dec 2014 (Local Time) from KCPS Reporting Station
Light Rain Light Rain  
Wind Chill: 44°   Ceiling: 600
Heat Index: 47°   Visibility: 4mi
Dew Point: 45°   Wind: 6mph
Humidity: 93%   Direction: 160°SSE
Pressure: 29.66"   Gusts: NA
Location:  38.22°N, 90.38°W
Report Text: KCPS 221753Z 16005KT 4SM -RA BR OVC006 08/07 A2966 RMK AO2 SLP045 P0004 60021 T00830072 10083 20044 58025
Loading
Personal Weather Stations






























Interactive Weather Map New forecast layout! Learn more

10-Day Weather Forecast

Advertisements
Track Severe Weather on mobile